Map

Track Data

SID SEASON NUMBER BASIN SUBBASIN NAME ISO_TIME NATURE LAT LON WMO_WIND WMO_PRES WMO_AGENCY TRACK_TYPE DIST2LAND LANDFALL IFLAG USA_AGENCY USA_ATCF_ID USA_LAT USA_LON USA_RECORD USA_STATUS USA_WIND USA_PRES USA_SSHS USA_R34_NE USA_R34_SE USA_R34_SW USA_R34_NW USA_R50_NE USA_R50_SE USA_R50_SW USA_R50_NW USA_R64_NE USA_R64_SE USA_R64_SW USA_R64_NW USA_POCI USA_ROCI USA_RMW USA_EYE TOKYO_LAT TOKYO_LON TOKYO_GRADE TOKYO_WIND TOKYO_PRES TOKYO_R50_DIR TOKYO_R50_LONG TOKYO_R50_SHORT TOKYO_R30_DIR TOKYO_R30_LONG TOKYO_R30_SHORT TOKYO_LAND CMA_LAT CMA_LON CMA_CAT CMA_WIND CMA_PRES HKO_LAT HKO_LON HKO_CAT HKO_WIND HKO_PRES NEWDELHI_LAT NEWDELHI_LON NEWDELHI_GRADE NEWDELHI_WIND NEWDELHI_PRES NEWDELHI_CI NEWDELHI_DP NEWDELHI_POCI REUNION_LAT REUNION_LON REUNION_TYPE REUNION_WIND REUNION_PRES REUNION_TNUM REUNION_CI REUNION_RMW REUNION_R34_NE REUNION_R34_SE REUNION_R34_SW REUNION_R34_NW REUNION_R50_NE REUNION_R50_SE REUNION_R50_SW REUNION_R50_NW REUNION_R64_NE REUNION_R64_SE REUNION_R64_SW REUNION_R64_NW BOM_LAT BOM_LON BOM_TYPE BOM_WIND BOM_PRES BOM_TNUM BOM_CI BOM_RMW BOM_R34_NE BOM_R34_SE BOM_R34_SW BOM_R34_NW BOM_R50_NE BOM_R50_SE BOM_R50_SW BOM_R50_NW BOM_R64_NE BOM_R64_SE BOM_R64_SW BOM_R64_NW BOM_ROCI BOM_POCI BOM_EYE BOM_POS_METHOD BOM_PRES_METHOD NADI_LAT NADI_LON NADI_CAT NADI_WIND NADI_PRES WELLINGTON_LAT WELLINGTON_LON WELLINGTON_WIND WELLINGTON_PRES DS824_LAT DS824_LON DS824_STAGE DS824_WIND DS824_PRES TD9636_LAT TD9636_LON TD9636_STAGE TD9636_WIND TD9636_PRES TD9635_LAT TD9635_LON TD9635_WIND TD9635_PRES TD9635_ROCI NEUMANN_LAT NEUMANN_LON NEUMANN_CLASS NEUMANN_WIND NEUMANN_PRES MLC_LAT MLC_LON MLC_CLASS MLC_WIND MLC_PRES USA_GUST BOM_GUST BOM_GUST_PER REUNION_GUST REUNION_GUST_PER USA_SEAHGT USA_SEARAD_NE USA_SEARAD_SE USA_SEARAD_SW USA_SEARAD_NW STORM_SPEED STORM_DIR
1997099N06153 1997 24 WP MM ISA 1997-04-09 00:00:00 NR 6.20000 153.000 main 1024 1024 O_____________ jtwc_wp WP021997 6.20000 153.000 15 -1 14 74
1997099N06153 1997 24 WP MM ISA 1997-04-09 03:00:00 NR 6.39512 153.695 main 1066 1066 P_____________ WP021997 6.39512 153.695 17 -1 15 74
1997099N06153 1997 24 WP MM ISA 1997-04-09 06:00:00 NR 6.60000 154.400 main 1112 1112 O_____________ jtwc_wp WP021997 6.60000 154.400 20 -1 15 72
1997099N06153 1997 24 WP MM ISA 1997-04-09 09:00:00 NR 6.84004 155.103 main 1162 1162 P_____________ WP021997 6.84004 155.103 20 -1 14 65
1997099N06153 1997 24 WP MM ISA 1997-04-09 12:00:00 NR 7.20000 155.700 main 1230 1230 O_____________ jtwc_wp WP021997 7.20000 155.700 20 -1 14 48
1997099N06153 1997 24 WP MM ISA 1997-04-09 15:00:00 NR 7.74738 156.110 main 1300 1300 P_____________ WP021997 7.74738 156.110 20 -1 14 30
1997099N06153 1997 24 WP MM ISA 1997-04-09 18:00:00 NR 8.40000 156.400 main 1385 1385 O_____________ jtwc_wp WP021997 8.40000 156.400 20 -1 15 22
1997099N06153 1997 24 WP MM ISA 1997-04-09 21:00:00 NR 9.11743 156.665 main 1470 1470 P_____________ WP021997 9.11743 156.665 20 -1 14 21
1997099N06153 1997 24 WP MM ISA 1997-04-10 00:00:00 NR 9.70000 156.900 main 1540 1540 O_____________ jtwc_wp WP021997 9.70000 156.900 20 -1 10 30
1997099N06153 1997 24 WP MM ISA 1997-04-10 03:00:00 NR 9.96249 157.165 main 1585 1585 P_____________ WP021997 9.96249 157.165 20 -1 6 59
1997099N06153 1997 24 WP MM ISA 1997-04-10 06:00:00 NR 10.0000 157.400 main 1595 1595 O_____________ jtwc_wp WP021997 10.0000 157.400 20 -1 4 94
1997099N06153 1997 24 WP MM ISA 1997-04-10 09:00:00 NR 9.93748 157.573 main 1595 1590 P_____________ WP021997 9.93748 157.573 20 -1 4 124
1997099N06153 1997 24 WP MM ISA 1997-04-10 12:00:00 NR 9.80000 157.700 main 1590 1585 O_____________ jtwc_wp WP021997 9.80000 157.700 20 -1 3 134
1997099N06153 1997 24 WP MM ISA 1997-04-10 15:00:00 NR 9.71499 157.807 main 1585 1580 P_____________ WP021997 9.71499 157.807 22 -1 3 135
1997099N06153 1997 24 WP MM ISA 1997-04-10 18:00:00 NR 9.60000 157.900 main 1580 1565 O_____________ jtwc_wp WP021997 9.60000 157.900 25 -1 4 146
1997099N06153 1997 24 WP MM ISA 1997-04-10 21:00:00 NR 9.42250 158.008 main 1565 1550 P_____________ WP021997 9.42250 158.008 25 -1 4 154
1997099N06153 1997 24 WP MM ISA 1997-04-11 00:00:00 NR 9.20000 158.100 main 1550 1531 O_____________ jtwc_wp WP021997 9.20000 158.100 25 -1 5 162
1997099N06153 1997 24 WP MM ISA 1997-04-11 03:00:00 NR 8.95750 158.165 main 1536 1507 P_____________ WP021997 8.95750 158.165 25 -1 5 169
1997099N06153 1997 24 WP MM ISA 1997-04-11 06:00:00 NR 8.70000 158.200 main 1507 1487 O_____________ jtwc_wp WP021997 8.70000 158.200 25 -1 5 173
1997099N06153 1997 24 WP MM ISA 1997-04-11 09:00:00 NR 8.45000 158.215 main 1487 1458 P_____________ WP021997 8.45000 158.215 25 -1 5 178
1997099N06153 1997 24 WP MM ISA 1997-04-11 12:00:00 NR 8.20000 158.200 main 1458 1439 O_____________ jtwc_wp WP021997 8.20000 158.200 25 -1 5 187
1997099N06153 1997 24 WP MM ISA 1997-04-11 15:00:00 NR 7.95000 158.158 main 1439 1405 P_____________ WP021997 7.95000 158.158 27 -1 5 191
1997099N06153 1997 24 WP MM ISA 1997-04-11 18:00:00 NR 7.70000 158.100 main 1405 1370 O_____________ jtwc_wp WP021997 7.70000 158.100 30 -1 5 195
1997099N06153 1997 24 WP MM ISA 1997-04-11 21:00:00 NR 7.42749 158.012 main 1370 1367 P_____________ WP021997 7.42749 158.012 30 -1 4 157
1997099N06153 1997 24 WP MM ISA 1997-04-12 00:00:00 TS 7.32857 158.257 1002 tokyo main 1378 1378 OOOO__________ jtwc_wp WP021997 7.20000 158.000 30 -1 7.50000 158.500 2 1002 0 0 0 7.50000 158.500 0 19 1002 7.50000 158.800 TD 30 1002 4 99
1997099N06153 1997 24 WP MM ISA 1997-04-12 03:00:00 TS 7.36552 158.392 main 1393 1393 PPPP__________ WP021997 7.04004 158.178 32 -1 7.65250 158.542 2 1002 0 0 7.44502 158.300 0 21 1002 7.65000 158.760 TD 30 1002 2 54
1997099N06153 1997 24 WP MM ISA 1997-04-12 06:00:00 TS 7.46154 158.446 1002 tokyo main 1403 1403 OOOO__________ jtwc_wp WP021997 7.00000 158.400 35 0 7.80000 158.600 2 1002 0 0 0 7.40000 158.100 1 23 1002 7.80000 158.700 TD 30 1002 2 11
1997099N06153 1997 24 WP MM ISA 1997-04-12 09:00:00 TS 7.59187 158.432 main 1413 1413 PPPP__________ WP021997 7.09749 158.537 37 0 7.94250 158.685 2 1001 0 0 7.37749 157.900 1 26 1001 7.95000 158.607 TD 30 1002 3 353
1997099N06153 1997 24 WP MM ISA 1997-04-12 12:00:00 TS 7.72500 158.400 1000 tokyo main 1422 1422 OOOO__________ jtwc_wp WP021997 7.30000 158.600 40 0 8.10000 158.800 2 1000 0 0 0 7.40000 157.700 1 29 1000 8.10000 158.500 TD 30 1002 3 348
1997099N06153 1997 24 WP MM ISA 1997-04-12 15:00:00 TS 7.88875 158.367 main 1441 1435 PPPP__________ WP021997 7.54249 158.588 42 0 8.29252 158.987 2 1000 0 0 7.47000 157.493 1 29 1000 8.25000 158.400 TD 30 1001 4 345
1997099N06153 1997 24 WP MM ISA 1997-04-12 18:00:00 TS 8.07500 158.300 1000 tokyo main 1455 1455 OOOO__________ jtwc_wp WP021997 7.80000 158.500 45 0 8.50000 159.100 2 1000 0 0 0 7.60000 157.300 1 29 1000 8.40000 158.300 TD 30 1000 4 335
1997099N06153 1997 24 WP MM ISA 1997-04-12 21:00:00 TS 8.26435 158.187 main 1468 1462 PPPP__________ WP021997 7.99999 158.380 50 0 8.72241 159.040 2 998 0 0 7.77750 157.120 1 29 1000 8.55749 158.208 TD 32 998 5 324
1997099N06153 1997 24 WP MM ISA 1997-04-13 00:00:00 TS 8.45000 158.025 35 996 tokyo main 1476 1467 OOOO__________ jtwc_wp WP021997 8.20000 158.200 55 0 8.90000 158.800 3 35 996 0 9 40 40 0 8.00000 157.000 1 29 1000 8.70000 158.100 TS 35 996 5 315
1997099N06153 1997 24 WP MM ISA 1997-04-13 03:00:00 TS 8.61627 157.829 main 1475 1475 PPPP__________ WP021997 8.44999 157.973 55 0 8.97262 158.380 3 35 995 0 9 50 50 8.24999 156.985 1 31 997 8.79247 157.980 TS 35 995 5 308
1997099N06153 1997 24 WP MM ISA 1997-04-13 06:00:00 TS 8.77500 157.600 35 994 tokyo main 1485 1480 OOOO__________ jtwc_wp WP021997 8.70000 157.700 55 0 9.00000 157.900 3 35 994 0 9 60 60 0 8.50000 157.000 2 34 995 8.90000 157.800 TS 35 994 6 306
1997099N06153 1997 24 WP MM ISA 1997-04-13 09:00:00 TS 8.93556 157.376 main 1485 1485 PPPP__________ WP021997 8.89993 157.430 57 0 9.04235 157.557 3 35 994 0 9 70 70 8.70748 156.980 2 34 995 9.09248 157.538 TS 35 994 6 303
1997099N06153 1997 24 WP MM ISA 1997-04-13 12:00:00 TS 9.10000 157.100 35 994 tokyo main 1490 1485 OOOO__________ jtwc_wp WP021997 9.10000 157.100 60 0 9.10000 157.200 3 35 994 0 9 80 80 0 8.90000 156.900 2 34 995 9.30000 157.200 TS 35 994 7 298
1997099N06153 1997 24 WP MM ISA 1997-04-13 15:00:00 TS 9.26746 156.750 main 1490 1485 PPPP__________ WP021997 9.35002 156.673 62 0 9.17001 156.722 3 35 994 0 9 80 80 9.09237 156.775 2 34 995 9.45745 156.830 TS 37 993 8 295
1997099N06153 1997 24 WP MM ISA 1997-04-13 18:00:00 TS 9.45000 156.325 35 994 tokyo main 1492 1483 OOOO__________ jtwc_wp WP021997 9.60000 156.200 65 1 9.30000 156.200 3 35 994 0 9 80 80 0 9.30000 156.500 2 34 995 9.60000 156.400 TS 40 992 10 294
1997099N06153 1997 24 WP MM ISA 1997-04-13 21:00:00 TS 9.67186 155.844 main 1491 1486 PPPP__________ WP021997 9.82991 155.758 65 1 9.54246 155.693 3 37 993 0 9 85 85 9.55011 156.003 2 36 995 9.76495 155.923 TS 40 992 11 293
1997099N06153 1997 24 WP MM ISA 1997-04-14 00:00:00 TS 9.87500 155.325 40 992 tokyo main 1493 1486 OOOO__________ jtwc_wp WP021997 10.0000 155.300 65 1 9.80000 155.200 3 40 992 0 9 90 90 0 9.80000 155.400 2 38 995 9.90000 155.400 TS 40 992 11 289
1997099N06153 1997 24 WP MM ISA 1997-04-14 03:00:00 TS 10.0155 154.824 main 1487 1482 PPPP__________ WP021997 10.0799 154.822 65 1 9.97984 154.757 3 40 992 0 9 90 90 10.0374 154.850 2 38 993 9.96491 154.865 TS 40 992 10 283
1997099N06153 1997 24 WP MM ISA 1997-04-14 06:00:00 TS 10.1000 154.300 40 992 tokyo main 1482 1469 OOOO__________ jtwc_wp WP021997 10.1000 154.300 65 1 10.1000 154.300 3 40 992 0 9 90 90 0 10.2000 154.300 2 38 992 10.0000 154.300 TS 40 992 11 277
1997099N06153 1997 24 WP MM ISA 1997-04-14 09:00:00 TS 10.1437 153.738 main 1467 1462 PPPP__________ WP021997 10.1074 153.722 65 1 10.1800 153.765 3 40 992 0 9 90 90 10.2374 153.750 2 41 991 10.0499 153.715 TS 40 992 11 273
1997099N06153 1997 24 WP MM ISA 1997-04-14 12:00:00 TS 10.1500 153.150 40 992 tokyo main 1467 1446 OOOO__________ jtwc_wp WP021997 10.1000 153.100 65 1 10.2000 153.200 3 40 992 0 9 90 90 0 10.2000 153.200 2 44 990 10.1000 153.100 TS 40 992 12 270
1997099N06153 1997 24 WP MM ISA 1997-04-14 15:00:00 TS 10.1411 152.565 main 1446 1439 PPPP__________ WP021997 10.0999 152.458 67 1 10.1573 152.665 3 40 991 0 9 90 90 10.1497 152.680 2 44 990 10.1574 152.458 TS 42 991 12 269
1997099N06153 1997 24 WP MM ISA 1997-04-14 18:00:00 TS 10.1250 151.950 40 990 tokyo main 1439 1433 OOOO__________ jtwc_wp WP021997 10.1000 151.800 70 1 10.1000 152.100 3 40 990 0 9 90 90 0 10.1000 152.100 2 44 990 10.2000 151.800 TS 45 990 13 269
1997099N06153 1997 24 WP MM ISA 1997-04-14 21:00:00 TS 10.1231 151.286 main 1433 1412 PPPP__________ WP021997 10.0999 151.150 72 1 10.0924 151.480 3 42 987 0 9 100 100 10.0926 151.373 2 46 990 10.2074 151.142 TS 47 987 13 270
1997099N06153 1997 24 WP MM ISA 1997-04-15 00:00:00 TS 10.1250 150.600 45 985 tokyo main 1412 1394 OOOO__________ jtwc_wp WP021997 10.1000 150.500 75 1 10.1000 150.800 3 45 985 0 9 110 110 0 10.1000 150.600 3 48 990 10.2000 150.500 STS 50 985 14 270
1997099N06153 1997 24 WP MM ISA 1997-04-15 03:00:00 TS 10.1213 149.897 main 1394 1383 PPPP__________ WP021997 10.1000 149.828 77 1 10.0927 150.027 3 47 982 0 9 115 115 10.0925 149.862 3 48 987 10.2000 149.870 STS 50 985 13 270
1997099N06153 1997 24 WP MM ISA 1997-04-15 06:00:00 TS 10.1250 149.250 50 980 tokyo main 1383 1375 OOOO__________ jtwc_wp WP021997 10.1000 149.200 80 1 10.1000 149.300 4 50 980 0 9 120 120 0 10.1000 149.200 3 48 985 10.2000 149.300 STS 50 985 11 271
1997099N06153 1997 24 WP MM ISA 1997-04-15 09:00:00 TS 10.1460 148.733 main 1374 1374 PPPP__________ WP021997 10.0923 148.677 82 1 10.1422 148.763 4 50 980 0 9 120 120 10.1498 148.663 3 48 985 10.1998 148.828 STS 52 982 10 273
1997099N06153 1997 24 WP MM ISA 1997-04-15 12:00:00 TS 10.1750 148.275 50 980 tokyo main 1381 1378 OOOO__________ jtwc_wp WP021997 10.1000 148.200 85 2 10.2000 148.300 4 50 980 0 9 120 120 0 10.2000 148.200 3 48 985 10.2000 148.400 STS 55 980 9 273
1997099N06153 1997 24 WP MM ISA 1997-04-15 15:00:00 TS 10.2000 147.776 main 1378 1378 PPPP__________ WP021997 10.1425 147.678 87 2 10.2576 147.763 4 52 977 0 9 135 135 10.2000 147.720 3 53 982 10.2000 147.943 STS 57 977 9 273
1997099N06153 1997 24 WP MM ISA 1997-04-15 18:00:00 TS 10.2250 147.325 55 975 tokyo main 1378 1378 OOOO__________ jtwc_wp WP021997 10.2000 147.200 90 2 10.3000 147.300 4 55 975 9 40 40 9 150 150 0 10.2000 147.300 3 58 980 10.2000 147.500 STS 60 975 8 272
1997099N06153 1997 24 WP MM ISA 1997-04-15 21:00:00 TS 10.2292 146.991 main 1378 1378 PPPP__________ WP021997 10.2199 146.835 92 2 10.2848 147.042 4 60 972 9 45 45 9 155 155 10.2274 146.992 3 61 977 10.1849 147.092 STS 62 972 6 274
1997099N06153 1997 24 WP MM ISA 1997-04-16 00:00:00 TS 10.2750 146.675 65 970 tokyo main 1389 1389 OOOO__________ jtwc_wp WP021997 10.3000 146.500 95 2 10.3000 146.800 5 65 970 9 50 50 9 160 160 0 10.3000 146.700 4 64 975 10.2000 146.700 T 65 970 7 286
1997099N06153 1997 24 WP MM ISA 1997-04-16 03:00:00 TS 10.4244 146.276 main 1401 1401 PPPP__________ WP021997 10.5424 146.115 97 3 10.4351 146.373 5 65 970 9 50 50 9 160 160 10.4425 146.315 4 64 975 10.2775 146.300 T 65 970 9 292
1997099N06153 1997 24 WP MM ISA 1997-04-16 06:00:00 TS 10.6000 145.850 65 970 tokyo main 1425 1425 OOOO__________ jtwc_wp WP021997 10.8000 145.700 100 3 10.6000 145.900 5 65 970 9 50 50 9 160 160 0 10.6000 145.900 4 64 975 10.4000 145.900 T 65 970 9 289
1997099N06153 1997 24 WP MM ISA 1997-04-16 09:00:00 TS 10.7124 145.437 main 1440 1440 PPPP__________ WP021997 10.9225 145.257 102 3 10.6924 145.492 5 65 970 9 50 50 9 160 160 10.6925 145.500 4 64 975 10.5424 145.500 T 65 970 8 286
1997099N06153 1997 24 WP MM ISA 1997-04-16 12:00:00 TS 10.8250 145.025 65 970 tokyo main 1456 1456 OOOO__________ jtwc_wp WP021997 11.0000 144.800 105 3 10.8000 145.100 5 65 970 9 50 50 9 160 160 0 10.8000 145.100 4 64 975 10.7000 145.100 T 65 970 9 288
1997099N06153 1997 24 WP MM ISA 1997-04-16 15:00:00 TS 10.9800 144.605 main 1484 1484 PPPP__________ WP021997 11.0925 144.327 105 3 10.9925 144.693 5 65 970 9 50 50 9 160 160 10.9924 144.700 4 64 975 10.8424 144.700 T 65 970 9 292
1997099N06153 1997 24 WP MM ISA 1997-04-16 18:00:00 TS 11.1500 144.200 65 970 tokyo main 1513 1502 OOOO__________ jtwc_wp WP021997 11.2000 143.900 105 3 11.2000 144.300 5 65 970 9 50 50 9 160 160 0 11.2000 144.300 4 64 975 11.0000 144.300 T 65 970 8 293
1997099N06153 1997 24 WP MM ISA 1997-04-16 21:00:00 TS 11.3031 143.830 main 1533 1533 PPPP__________ WP021997 11.3349 143.577 105 3 11.3424 143.950 5 67 967 9 55 55 9 180 180 11.3500 143.892 4 66 972 11.1849 143.900 T 67 967 8 295
1997099N06153 1997 24 WP MM ISA 1997-04-17 00:00:00 TS 11.4750 143.475 70 965 tokyo main 1561 1561 OOOO__________ jtwc_wp WP021997 11.5000 143.300 105 3 11.5000 143.600 5 70 965 9 60 60 9 200 200 0 11.5000 143.500 4 68 970 11.4000 143.500 T 70 965 8 299
1997099N06153 1997 24 WP MM ISA 1997-04-17 03:00:00 TS 11.6887 143.116 main 1585 1581 PPPP__________ WP021997 11.6849 143.007 107 3 11.7350 143.208 5 70 962 9 65 65 9 210 210 11.6849 143.150 4 72 967 11.6499 143.100 T 70 965 8 302
1997099N06153 1997 24 WP MM ISA 1997-04-17 06:00:00 TS 11.9250 142.750 70 960 tokyo main 1595 1592 OOOO__________ jtwc_wp WP021997 11.9000 142.700 110 3 12.0000 142.800 5 70 960 9 70 70 9 220 220 0 11.9000 142.800 4 77 965 11.9000 142.700 T 70 965 9 303
1997099N06153 1997 24 WP MM ISA 1997-04-17 09:00:00 TS 12.1681 142.364 main 1614 1608 PPPP__________ WP021997 12.1500 142.358 110 3 12.2649 142.400 5 70 960 9 70 70 9 220 220 12.1500 142.408 4 77 962 12.1075 142.292 T 72 962 9 302
1997099N06153 1997 24 WP MM ISA 1997-04-17 12:00:00 TS 12.4000 141.975 70 960 tokyo main 1623 1620 OOOO__________ jtwc_wp WP021997 12.4000 142.000 110 3 12.5000 142.000 5 70 960 9 70 70 9 220 220 0 12.4000 142.000 4 77 960 12.3000 141.900 T 75 960 9 300
1997099N06153 1997 24 WP MM ISA 1997-04-17 15:00:00 TS 12.6024 141.596 main 1627 1623 PPPP__________ WP021997 12.6149 141.657 112 3 12.6725 141.592 5 70 960 9 70 70 9 220 220 12.6150 141.592 4 77 960 12.5074 141.542 T 75 960 8 297
1997099N06153 1997 24 WP MM ISA 1997-04-17 18:00:00 TS 12.7750 141.225 70 960 tokyo main 1632 1628 OOOO__________ jtwc_wp WP021997 12.8000 141.300 115 4 12.8000 141.200 5 70 960 9 70 70 9 220 220 0 12.8000 141.200 4 77 960 12.7000 141.200 T 75 960 8 294
1997099N06153 1997 24 WP MM ISA 1997-04-17 21:00:00 TS 12.9256 140.859 main 1631 1615 PPPP__________ WP021997 12.9725 140.900 115 4 12.9074 140.842 5 70 960 9 70 70 9 220 220 12.9649 140.842 4 77 960 12.8575 140.850 T 75 960 8 291
1997099N06153 1997 24 WP MM ISA 1997-04-18 00:00:00 TS 13.0500 140.500 70 960 tokyo main 1616 1584 OOOO__________ jtwc_wp WP021997 13.1000 140.500 115 4 13.0000 140.500 5 70 960 9 70 70 9 220 220 0 13.1000 140.500 4 77 960 13.0000 140.500 T 75 960 7 288
1997099N06153 1997 24 WP MM ISA 1997-04-18 03:00:00 TS 13.1519 140.133 main 1574 1542 PPPP__________ WP021997 13.1575 140.127 117 4 13.0850 140.135 5 70 960 9 70 70 9 220 220 13.2075 140.135 4 77 960 13.1575 140.135 T 75 960 7 286
1997099N06153 1997 24 WP MM ISA 1997-04-18 06:00:00 TS 13.2500 139.800 70 960 tokyo main 1544 1513 OOOO__________ jtwc_wp WP021997 13.2000 139.800 120 4 13.2000 139.800 5 70 960 9 70 70 9 220 220 0 13.3000 139.800 4 77 960 13.3000 139.800 T 75 960 6 290
1997099N06153 1997 24 WP MM ISA 1997-04-18 09:00:00 TS 13.3656 139.531 main 1513 1494 PPPP__________ WP021997 13.2774 139.535 122 4 13.3924 139.528 5 72 957 9 70 70 9 220 220 13.3924 139.527 4 77 960 13.3999 139.535 T 77 957 5 297
1997099N06153 1997 24 WP MM ISA 1997-04-18 12:00:00 TS 13.5000 139.300 75 955 tokyo main 1494 1474 OOOO__________ jtwc_wp WP021997 13.4000 139.300 125 4 13.6000 139.300 5 75 955 9 70 70 9 220 220 0 13.5000 139.300 4 77 960 13.5000 139.300 T 80 955 5 302
1997099N06153 1997 24 WP MM ISA 1997-04-18 15:00:00 TS 13.6512 139.067 main 1476 1455 PPPP__________ WP021997 13.5775 139.043 125 4 13.7575 139.092 5 75 955 9 70 70 9 220 220 13.6350 139.092 4 77 960 13.6350 139.042 T 80 955 5 307
1997099N06153 1997 24 WP MM ISA 1997-04-18 18:00:00 TS 13.8250 138.850 75 955 tokyo main 1457 1438 OOOO__________ jtwc_wp WP021997 13.8000 138.800 125 4 13.9000 138.900 5 75 955 9 70 70 9 220 220 0 13.8000 138.900 4 77 960 13.8000 138.800 T 80 955 5 310
1997099N06153 1997 24 WP MM ISA 1997-04-18 21:00:00 TS 14.0062 138.641 main 1430 1422 PPPP__________ WP021997 14.0425 138.585 125 4 14.0275 138.692 5 77 952 9 75 75 9 230 230 13.9700 138.700 4 77 960 13.9850 138.585 T 82 952 6 316
1997099N06153 1997 24 WP MM ISA 1997-04-19 00:00:00 TS 14.2250 138.450 80 950 tokyo main 1424 1407 OOOO__________ jtwc_wp WP021997 14.3000 138.400 125 4 14.2000 138.500 5 80 950 9 80 80 9 240 240 0 14.2000 138.500 4 77 960 14.2000 138.400 ST 85 950 6 324
1997099N06153 1997 24 WP MM ISA 1997-04-19 03:00:00 TS 14.5012 138.273 main 1409 1393 PPPP__________ WP021997 14.5425 138.235 127 4 14.4775 138.335 5 80 950 9 80 80 9 240 240 14.5500 138.285 4 82 957 14.4350 138.235 ST 87 947 7 331
1997099N06153 1997 24 WP MM ISA 1997-04-19 06:00:00 TS 14.8000 138.125 80 950 tokyo main 1393 1387 OOOO__________ jtwc_wp WP021997 14.8000 138.100 130 4 14.8000 138.200 5 80 950 9 80 80 9 240 240 0 14.9000 138.100 5 87 955 14.7000 138.100 ST 90 945 6 336
1997099N06153 1997 24 WP MM ISA 1997-04-19 09:00:00 TS 15.0731 138.014 main 1389 1383 PPPP__________ WP021997 15.0925 137.985 132 4 15.1075 138.092 5 82 947 9 90 90 9 265 265 15.1000 137.985 5 92 950 14.9925 137.992 ST 92 942 6 341
1997099N06153 1997 24 WP MM ISA 1997-04-19 12:00:00 TS 15.3500 137.925 85 945 tokyo main 1386 1381 OOOO__________ jtwc_wp WP021997 15.4000 137.900 135 4 15.4000 138.000 5 85 945 9 100 100 9 290 290 0 15.3000 137.900 5 97 945 15.3000 137.900 ST 95 940 6 343
1997099N06153 1997 24 WP MM ISA 1997-04-19 15:00:00 TS 15.6444 137.830 main 1381 1381 PPPP__________ WP021997 15.7000 137.842 137 5 15.6425 137.892 5 85 945 9 100 100 9 290 290 15.6350 137.793 5 97 945 15.6000 137.793 ST 95 940 6 344
1997099N06153 1997 24 WP MM ISA 1997-04-19 18:00:00 TS 15.9500 137.750 85 945 tokyo main 1393 1383 OOOO__________ jtwc_wp WP021997 16.0000 137.800 140 5 15.9000 137.800 5 85 945 9 100 100 9 290 290 0 16.0000 137.700 5 97 945 15.9000 137.700 ST 95 940 6 348
1997099N06153 1997 24 WP MM ISA 1997-04-19 21:00:00 TS 16.2494 137.692 main 1389 1389 PPPP__________ WP021997 16.2925 137.750 142 5 16.2275 137.742 5 85 942 9 100 100 9 295 295 16.2925 137.635 5 97 945 16.1850 137.642 ST 95 940 6 351
1997099N06153 1997 24 WP MM ISA 1997-04-20 00:00:00 TS 16.5750 137.650 85 940 tokyo main 1403 1393 OOOO__________ jtwc_wp WP021997 16.6000 137.700 145 5 16.6000 137.700 5 85 940 9 100 100 9 300 300 0 16.6000 137.600 5 97 945 16.5000 137.600 ST 95 940 7 354
1997099N06153 1997 24 WP MM ISA 1997-04-20 03:00:00 TS 16.9475 137.607 main 1404 1404 PPPP__________ WP021997 16.9350 137.643 145 5 16.9925 137.643 5 85 940 9 100 100 9 300 300 16.9850 137.600 5 97 945 16.8775 137.543 ST 92 942 8 355
1997099N06153 1997 24 WP MM ISA 1997-04-20 06:00:00 TS 17.3500 137.575 85 940 tokyo main 1425 1420 OOOO__________ jtwc_wp WP021997 17.3000 137.600 145 5 17.4000 137.600 5 85 940 9 100 100 9 300 300 0 17.4000 137.600 5 97 945 17.3000 137.500 ST 90 945 8 356
1997099N06153 1997 24 WP MM ISA 1997-04-20 09:00:00 TS 17.7494 137.555 main 1438 1438 PPPP__________ WP021997 17.6850 137.592 142 5 17.7850 137.592 5 85 940 9 100 100 9 300 300 17.7850 137.550 5 97 945 17.7425 137.485 ST 87 947 8 359
1997099N06153 1997 24 WP MM ISA 1997-04-20 12:00:00 TS 18.1750 137.550 85 940 tokyo main 1461 1451 OOOO__________ jtwc_wp WP021997 18.1000 137.600 140 5 18.2000 137.600 5 85 940 9 100 100 9 300 300 0 18.2000 137.500 5 97 945 18.2000 137.500 ST 85 950 9 1
1997099N06153 1997 24 WP MM ISA 1997-04-20 15:00:00 TS 18.6463 137.555 main 1481 1481 PPPP__________ WP021997 18.5350 137.600 135 4 18.7000 137.593 5 85 940 9 100 100 9 300 300 18.7000 137.485 5 97 945 18.6500 137.542 ST 82 952 10 2
1997099N06153 1997 24 WP MM ISA 1997-04-20 18:00:00 TS 19.1250 137.575 85 940 tokyo main 1499 1459 OOOO__________ jtwc_wp WP021997 19.0000 137.600 130 4 19.2000 137.600 5 85 940 9 100 100 9 300 300 0 19.2000 137.500 5 97 945 19.1000 137.600 T 80 955 9 2
1997099N06153 1997 24 WP MM ISA 1997-04-20 21:00:00 TS 19.5643 137.588 main 1449 1409 PPPP__________ WP021997 19.4925 137.570 127 4 19.6075 137.628 5 82 945 9 95 95 9 300 300 19.6075 137.520 5 87 950 19.5500 137.635 T 77 957 9 4
1997099N06153 1997 24 WP MM ISA 1997-04-21 00:00:00 TS 20.0000 137.650 80 950 tokyo main 1414 1380 OOOO__________ jtwc_wp WP021997 20.0000 137.600 125 4 20.0000 137.700 5 80 950 9 90 90 9 300 300 0 20.0000 137.600 4 77 955 20.0000 137.700 T 75 960 9 12
1997099N06153 1997 24 WP MM ISA 1997-04-21 03:00:00 TS 20.4418 137.790 main 1380 1342 PPPP__________ WP021997 20.4999 137.748 120 4 20.4200 137.835 5 77 952 9 90 90 9 300 300 20.4199 137.755 4 77 957 20.4275 137.820 T 72 962 10 20
1997099N06153 1997 24 WP MM ISA 1997-04-21 06:00:00 TS 20.9250 138.000 75 955 tokyo main 1342 1305 OOOO__________ jtwc_wp WP021997 21.0000 138.000 115 4 20.9000 138.000 5 75 955 9 90 90 9 300 300 0 20.9000 138.000 4 77 960 20.9000 138.000 T 70 965 11 23
1997099N06153 1997 24 WP MM ISA 1997-04-21 09:00:00 TS 21.4813 138.264 main 1300 1263 PPPP__________ WP021997 21.4927 138.350 107 3 21.4774 138.128 5 72 957 9 85 85 9 285 285 21.4777 138.357 4 77 960 21.4775 138.220 T 67 967 13 24
1997099N06153 1997 24 WP MM ISA 1997-04-21 12:00:00 TS 22.0750 138.550 70 960 tokyo main 1259 1218 OOOO__________ jtwc_wp WP021997 22.0000 138.700 100 3 22.1000 138.300 5 70 960 9 80 80 9 270 270 0 22.1000 138.700 4 77 960 22.1000 138.500 T 65 970 13 22
1997099N06153 1997 24 WP MM ISA 1997-04-21 15:00:00 TS 22.6511 138.780 main 1215 1180 PPPP__________ WP021997 22.5197 138.893 95 2 22.6924 138.555 5 67 965 9 75 75 9 255 255 22.6997 138.851 4 72 965 22.6924 138.820 T 62 972 13 21
1997099N06153 1997 24 WP MM ISA 1997-04-21 18:00:00 TS 23.2500 139.050 65 970 tokyo main 1172 1116 OOOO__________ jtwc_wp WP021997 23.1000 139.100 90 2 23.3000 138.900 5 65 970 9 70 70 9 240 240 0 23.3000 139.000 4 68 970 23.3000 139.200 STS 60 975 14 25
1997099N06153 1997 24 WP MM ISA 1997-04-21 21:00:00 TS 23.9039 139.407 main 1116 1066 PPPP__________ WP021997 23.7923 139.440 85 2 23.9737 139.299 5 62 972 9 65 65 9 230 230 23.8996 139.268 4 66 972 23.9499 139.620 STS 55 977 15 30
1997099N06153 1997 24 WP MM ISA 1997-04-22 00:00:00 TS 24.5500 139.875 60 975 tokyo main 1059 1027 OOOO__________ jtwc_wp WP021997 24.5000 139.900 80 1 24.6000 139.800 4 60 975 9 60 60 9 220 220 0 24.5000 139.700 4 64 975 24.6000 140.100 STS 50 980 16 38
1997099N06153 1997 24 WP MM ISA 1997-04-22 03:00:00 TS 25.1324 140.449 60 975 tokyo main 1027 995 POPP__________ WP021997 25.1224 140.455 77 1 25.1000 140.400 4 60 975 9 60 60 9 220 220 0 25.0926 140.333 4 64 975 25.2146 140.606 STS 50 980 17 43
1997099N06153 1997 24 WP MM ISA 1997-04-22 06:00:00 TS 25.7500 141.125 60 975 tokyo main 990 969 OOOO__________ jtwc_wp WP021997 25.7000 141.100 75 1 25.8000 141.100 4 60 975 9 60 60 9 220 220 0 25.7000 141.100 4 64 975 25.8000 141.200 STS 50 980 18 46
1997099N06153 1997 24 WP MM ISA 1997-04-22 09:00:00 TS 26.3424 141.845 60 975 tokyo main 969 928 POPP__________ WP021997 26.2871 141.770 72 1 26.3000 141.800 4 60 975 9 60 60 9 220 220 0 26.3876 141.907 4 61 977 26.3948 141.905 STS 50 980 18 49
1997099N06153 1997 24 WP MM ISA 1997-04-22 12:00:00 TS 26.9250 142.650 55 980 tokyo main 931 907 OOOO__________ jtwc_wp WP021997 26.8000 142.500 70 1 27.0000 142.700 4 55 980 9 50 50 9 220 220 0 27.0000 142.700 3 58 980 26.9000 142.700 STS 50 980 17 55
1997099N06153 1997 24 WP MM ISA 1997-04-22 15:00:00 TS 27.3083 143.388 55 980 tokyo main 910 902 POPP__________ WP021997 27.1796 143.279 67 1 27.4000 143.400 4 55 980 9 50 50 9 220 220 0 27.4314 143.343 3 56 982 27.2221 143.529 STS 47 982 15 63
1997099N06153 1997 24 WP MM ISA 1997-04-22 18:00:00 TS 27.6000 144.150 50 985 tokyo main 910 904 OOOO__________ jtwc_wp WP021997 27.5000 144.100 65 1 27.7000 144.100 4 50 985 0 9 200 200 0 27.7000 144.000 3 54 985 27.5000 144.400 TS 45 985 15 69
1997099N06153 1997 24 WP MM ISA 1997-04-22 21:00:00 TS 27.8542 144.988 50 985 tokyo main 917 917 POPP__________ WP021997 27.8415 144.914 62 0 27.9000 145.000 4 50 985 0 9 200 200 0 27.7837 144.763 3 51 987 27.8918 145.278 TS 45 985 16 71
1997099N06153 1997 24 WP MM ISA 1997-04-23 00:00:00 TS 28.1250 145.875 45 990 tokyo main 946 942 OOOO__________ jtwc_wp WP021997 28.2000 145.800 60 0 28.1000 145.800 3 45 990 0 9 200 200 0 27.9000 145.700 3 48 990 28.3000 146.200 TS 45 985 18 70
1997099N06153 1997 24 WP MM ISA 1997-04-23 03:00:00 TS 28.4745 146.922 main 965 965 PPPP__________ WP021997 28.5766 146.791 55 0 28.3980 146.872 3 45 990 0 9 200 200 28.2890 146.845 3 43 992 28.6344 147.179 TS 45 985 21 69
1997099N06153 1997 24 WP MM ISA 1997-04-23 06:00:00 TS 28.8933 148.120 45 990 tokyo main 1008 1008 OOOO__________ jtwc_wp WP021997 29.0000 147.900 50 0 28.8000 148.200 3 45 990 0 9 200 200 0 28.8000 148.200 2 38 995 29.0000 148.200 TS 45 985 24 68
1997099N06153 1997 24 WP MM ISA 1997-04-23 09:00:00 TS 29.3571 149.458 main 1067 1067 PPPP__________ WP021997 29.4772 149.121 47 0 29.2616 149.676 3 45 992 0 9 250 200 29.2764 149.684 2 38 995 29.4691 149.242 TS 45 985 27 69
1997099N06153 1997 24 WP MM ISA 1997-04-23 12:00:00 TS 29.8667 150.992 45 994 tokyo main 1141 1141 OOOO__________ jtwc_wp WP021997 30.0000 150.400 45 0 29.8000 151.300 3 45 994 0 2 300 200 0 29.8000 151.300 2 38 995 30.0000 150.300 TS 45 985 30 70
1997099N06153 1997 24 WP MM ISA 1997-04-23 15:00:00 TS 30.4041 152.709 main 1245 1245 PPP___________ WP021997 30.5469 151.657 45 0 30.3684 152.972 3 995 0 2 30.3684 152.972 2 38 995 TS 32 69
1997099N06153 1997 24 WP MM ISA 1997-04-23 18:00:00 MX 31.0111 154.500 996 tokyo main 1363 1363 OOO___________ jtwc_wp WP021997 31.1000 152.900 45 0 31.0000 154.700 6 996 0 0 0 31.0000 154.700 2 38 995 34 69
1997099N06153 1997 24 WP MM ISA 1997-04-23 21:00:00 MX 31.6383 156.454 main 1509 1509 _PP___________ WP021997 -1 31.6383 156.454 6 998 0 0 31.6383 156.454 2 33 997 34 66
1997099N06153 1997 24 WP MM ISA 1997-04-24 00:00:00 MX 32.4000 158.200 1000 tokyo main 1630 1616 _OO___________ -1 32.4000 158.200 6 1000 0 0 0 32.4000 158.200 1 29 1000 34 60
1997099N06153 1997 24 WP MM ISA 1997-04-24 03:00:00 MX 33.3461 159.938 main 1620 1598 _PP___________ -1 33.3461 159.938 6 1000 0 0 33.3461 159.938 1 29 1000 35 55
1997099N06153 1997 24 WP MM ISA 1997-04-24 06:00:00 MX 34.4000 161.600 1000 tokyo main 1600 1586 _OO___________ -1 34.4000 161.600 6 1000 0 0 0 34.4000 161.600 1 29 1000 34 51
1997099N06153 1997 24 WP MM ISA 1997-04-24 09:00:00 MX 35.4577 163.131 main 1583 1582 _PP___________ -1 35.4577 163.131 6 1002 0 0 35.4577 163.131 1 26 1002 32 49
1997099N06153 1997 24 WP MM ISA 1997-04-24 12:00:00 MX 36.5000 164.600 1004 tokyo main 1588 _OO___________ -1 36.5000 164.600 6 1004 0 0 0 36.5000 164.600 1 23 1004 32 49

Digital Typhoon Data and Search

About IBTrACS Database

This database is a web-friendly format of International Best Track Archive for Climate Stewardship (IBTrACS), a global best track data archive curated by NOAA dating back to 1842.

Updated: 2021-10-19